Nrp Hidra — CTIL — position and weather

sailwx.info

Track history (hours):
 
Tides and Currents Weather Stations Pressure Air Temp Water Temp Dewpoint Dewpoint Depression Visibility Wind Speed Wind Dir Waves Ship Positions

Nrp Hidra

Last reported at 2018-Feb-24 10:53 UTC. Time now 2018-Jun-25 19:31 UTC.
Position N 38°40' W 009°09'.
Warning: this ship's position is months out of date.

Length 27 m; draft 2.8 m.

Type: Military. MMSI: 263125000.

Date/timePositionNaut miles runAvg speedWind from/ knotsBaromVisibWave heightAir tempDewpointWater temp
2018-Feb-24 10:53N 38°40' W 009°09'0 0.0
2018-Feb-24 10:30N 38°40' W 009°09'1 2.8
2018-Feb-24 10:00N 38°42' W 009°09'5 8.6
2018-Feb-24 09:27N 38°41' W 009°15'4 8.5
2018-Feb-24 09:00N 38°39' W 009°19'5 8.7
2018-Feb-24 08:25N 38°34' W 009°20'4 8.6
2018-Feb-24 08:00N 38°31' W 009°19'5 8.6
2018-Feb-24 07:24N 38°26' W 009°19'4 8.6
2018-Feb-24 06:59N 38°22' W 009°18'4 8.5
2018-Feb-24 06:28N 38°18' W 009°17'4 8.5
2018-Feb-24 06:00N 38°14' W 009°16'4 8.4
2018-Feb-24 05:30N 38°10' W 009°15'4 8.4
2018-Feb-24 05:00N 38°06' W 009°14'4 8.4
2018-Feb-24 04:30N 38°01' W 009°13'4 8.5
2018-Feb-24 04:00N 37°57' W 009°12'4 8.5
2018-Feb-24 03:30N 37°53' W 009°11'4 8.8
2018-Feb-24 03:01N 37°49' W 009°11'4 8.7
2018-Feb-24 02:30N 37°44' W 009°10'4 8.6
2018-Feb-24 02:00N 37°40' W 009°09'4 8.5
2018-Feb-24 01:30N 37°36' W 009°08'  
Track history (hours):
 
Tides and Currents Weather Stations Pressure Air Temp Water Temp Dewpoint Dewpoint Depression Visibility Wind Speed Wind Dir Waves Ship Positions

Nrp Hidra

Last reported at 2018-Feb-24 10:53 UTC. Time now 2018-Jun-25 19:31 UTC.
Position N 38°40' W 009°09'.
Warning: this ship's position is months out of date.

Length 27 m; draft 2.8 m.

Type: Military. MMSI: 263125000.

Date/timePositionNaut miles runAvg speedWind from/ knotsBaromVisibWave heightAir tempDewpointWater temp
2018-Feb-24 10:53N 38°40' W 009°09'0 0.0
2018-Feb-24 10:30N 38°40' W 009°09'1 2.8
2018-Feb-24 10:00N 38°42' W 009°09'5 8.6
2018-Feb-24 09:27N 38°41' W 009°15'4 8.5
2018-Feb-24 09:00N 38°39' W 009°19'5 8.7
2018-Feb-24 08:25N 38°34' W 009°20'4 8.6
2018-Feb-24 08:00N 38°31' W 009°19'5 8.6
2018-Feb-24 07:24N 38°26' W 009°19'4 8.6
2018-Feb-24 06:59N 38°22' W 009°18'4 8.5
2018-Feb-24 06:28N 38°18' W 009°17'4 8.5
2018-Feb-24 06:00N 38°14' W 009°16'4 8.4
2018-Feb-24 05:30N 38°10' W 009°15'4 8.4
2018-Feb-24 05:00N 38°06' W 009°14'4 8.4
2018-Feb-24 04:30N 38°01' W 009°13'4 8.5
2018-Feb-24 04:00N 37°57' W 009°12'4 8.5
2018-Feb-24 03:30N 37°53' W 009°11'4 8.8
2018-Feb-24 03:01N 37°49' W 009°11'4 8.7
2018-Feb-24 02:30N 37°44' W 009°10'4 8.6
2018-Feb-24 02:00N 37°40' W 009°09'4 8.5
2018-Feb-24 01:30N 37°36' W 009°08'  

Dump ship's entire track history